createdAt,value
2022-09-05T00:04:25.252Z,26.90
2022-09-05T00:09:40.240Z,27.00
2022-09-05T00:15:16.273Z,27.00
2022-09-05T00:24:18.945Z,27.10
2022-09-05T00:26:12.474Z,27.10
2022-09-05T00:31:55.307Z,27.30
2022-09-05T00:36:56.482Z,27.40
2022-09-05T00:42:09.713Z,27.40
2022-09-05T00:47:21.485Z,27.60
2022-09-05T00:53:06.633Z,27.70
2022-09-05T00:58:19.259Z,27.80
2022-09-05T01:03:27.949Z,27.90
2022-09-05T01:08:51.738Z,28.00
2022-09-05T01:14:20.065Z,28.20
2022-09-05T01:19:51.776Z,28.40
2022-09-05T01:25:10.941Z,28.50
2022-09-05T01:30:23.465Z,28.70
2022-09-05T01:36:00.554Z,28.90
2022-09-05T01:41:18.908Z,29.00
2022-09-05T01:46:30.006Z,29.00
2022-09-05T01:52:01.591Z,29.20
2022-09-05T01:57:21.868Z,29.30
2022-09-05T02:02:55.696Z,29.50
2022-09-05T02:08:08.891Z,29.90
2022-09-05T02:13:30.070Z,30.10
2022-09-05T02:19:05.313Z,30.40
2022-09-05T02:24:36.095Z,30.70
2022-09-05T02:29:50.791Z,30.90
2022-09-05T02:34:59.651Z,31.30
2022-09-05T02:45:03.598Z,31.50
2022-09-05T02:46:05.107Z,31.50
2022-09-05T02:57:23.060Z,31.50
2022-09-05T02:58:05.926Z,31.60
2022-09-05T03:03:18.106Z,31.60
2022-09-05T03:08:34.033Z,32.10
2022-09-05T03:13:57.852Z,32.60
2022-09-05T03:19:06.518Z,32.70
2022-09-05T03:24:55.929Z,32.70
2022-09-05T03:30:36.838Z,32.80
2022-09-05T03:36:10.851Z,33.00
2022-09-05T03:41:40.312Z,33.20
2022-09-05T03:47:13.084Z,33.20
2022-09-05T03:57:10.353Z,33.20
2022-09-05T03:58:55.838Z,33.10
2022-09-05T04:08:15.982Z,32.90
2022-09-05T04:09:59.211Z,33.00
2022-09-05T04:15:32.302Z,33.10
2022-09-05T04:20:56.785Z,32.90
2022-09-05T04:26:11.368Z,32.70
2022-09-05T04:32:05.495Z,32.30
2022-09-05T04:37:48.929Z,32.60
2022-09-05T04:42:55.196Z,33.90
2022-09-05T04:48:06.220Z,34.10
2022-09-05T04:53:34.646Z,34.40
2022-09-05T05:00:22.819Z,35.20
2022-09-05T05:06:14.486Z,35.90
2022-09-05T05:10:01.896Z,36.10
2022-09-05T05:18:09.260Z,36.90
2022-09-05T05:21:10.826Z,37.40
2022-09-05T05:26:23.860Z,36.50
2022-09-05T05:31:32.747Z,35.00
2022-09-05T05:36:48.784Z,36.70
2022-09-05T05:42:17.460Z,35.60
2022-09-05T05:47:43.701Z,35.90
2022-09-05T05:53:33.638Z,38.80
2022-09-05T05:59:25.033Z,37.40
2022-09-05T06:04:44.795Z,38.00
2022-09-05T06:14:50.394Z,35.90
2022-09-05T06:15:41.958Z,35.80
2022-09-05T06:22:06.614Z,35.00
2022-09-05T06:26:58.541Z,36.80
2022-09-05T06:33:05.417Z,36.40
2022-09-05T06:38:28.689Z,34.90
2022-09-05T06:43:46.370Z,34.60
2022-09-05T06:49:30.341Z,37.10
2022-09-05T06:55:09.719Z,37.60
2022-09-05T07:00:25.293Z,39.40
2022-09-05T07:05:45.092Z,40.70
2022-09-05T07:11:16.128Z,41.50
2022-09-05T07:16:40.328Z,42.20
2022-09-05T07:22:47.344Z,41.50
2022-09-05T07:28:28.209Z,41.30
2022-09-05T07:33:29.658Z,40.80
2022-09-05T07:38:52.104Z,41.50
2022-09-05T07:44:29.161Z,41.10
2022-09-05T07:49:39.900Z,41.60
2022-09-05T07:57:09.778Z,41.70
2022-09-05T08:00:38.097Z,41.80
2022-09-05T08:05:50.219Z,41.00
2022-09-05T08:11:24.434Z,39.10
2022-09-05T08:16:27.946Z,37.70
2022-09-05T08:21:43.555Z,36.20
2022-09-05T08:26:52.147Z,35.60
2022-09-05T08:32:10.324Z,35.20
2022-09-05T08:37:22.708Z,34.70
2022-09-05T08:42:49.378Z,34.60
2022-09-05T08:48:16.944Z,34.40
2022-09-05T08:53:46.207Z,34.10
2022-09-05T08:59:27.871Z,34.00
2022-09-05T09:05:14.314Z,33.90
2022-09-05T09:10:47.908Z,33.70
2022-09-05T09:16:19.056Z,33.70
2022-09-05T09:21:40.015Z,33.50
2022-09-05T09:26:58.126Z,33.40
2022-09-05T09:32:30.896Z,33.20
2022-09-05T09:38:10.089Z,33.10
2022-09-05T09:43:30.218Z,32.90
2022-09-05T09:48:53.965Z,32.90
2022-09-05T09:54:21.360Z,32.90
2022-09-05T09:59:54.044Z,32.80
2022-09-05T10:10:38.413Z,32.80
2022-09-05T10:16:50.517Z,32.50
2022-09-05T10:22:37.776Z,32.40
2022-09-05T10:27:44.595Z,32.40
2022-09-05T10:35:14.386Z,32.30
2022-09-05T10:38:43.003Z,32.20
2022-09-05T10:44:03.816Z,32.10
2022-09-05T10:49:12.806Z,32.10
2022-09-05T10:55:14.081Z,32.00
2022-09-05T11:02:24.866Z,31.90
2022-09-05T11:07:19.335Z,31.80
2022-09-05T11:12:57.650Z,31.60
2022-09-05T11:18:10.377Z,31.50
2022-09-05T11:23:56.865Z,31.40
2022-09-05T11:29:14.884Z,31.30
2022-09-05T11:40:08.639Z,31.20
2022-09-05T11:40:31.209Z,31.30
2022-09-05T11:45:52.080Z,31.20
2022-09-05T11:51:33.474Z,31.20
2022-09-05T11:56:54.422Z,31.20
2022-09-05T12:02:51.866Z,31.00
2022-09-05T12:08:28.827Z,31.00
2022-09-05T12:13:37.413Z,31.00
2022-09-05T12:19:07.534Z,31.00
2022-09-05T12:25:27.108Z,30.90
2022-09-05T12:30:33.627Z,30.80
2022-09-05T12:40:54.550Z,30.80
2022-09-05T12:42:11.401Z,30.80
2022-09-05T12:47:19.404Z,30.80
2022-09-05T12:52:28.522Z,30.70
2022-09-05T13:01:19.042Z,30.80
2022-09-05T13:03:40.642Z,30.80
2022-09-05T13:08:59.091Z,30.80
2022-09-05T13:14:57.187Z,30.80
2022-09-05T13:19:52.663Z,30.70
2022-09-05T13:25:13.381Z,30.70
2022-09-05T13:31:28.604Z,30.60
2022-09-05T13:38:16.015Z,30.50
2022-09-05T13:41:39.091Z,30.50
2022-09-05T13:47:29.076Z,30.60
2022-09-05T13:53:10.322Z,30.60
2022-09-05T13:58:33.599Z,30.60
2022-09-05T14:10:04.628Z,30.50
2022-09-05T14:15:34.159Z,30.30
2022-09-05T14:21:10.545Z,30.20
2022-09-05T14:26:23.649Z,30.00
2022-09-05T14:37:41.990Z,30.00
2022-09-05T14:38:04.289Z,29.90
2022-09-05T14:43:52.527Z,29.80
2022-09-05T14:49:18.629Z,29.70
2022-09-05T15:02:50.861Z,29.70
2022-09-05T15:05:53.623Z,29.70
2022-09-05T15:12:20.230Z,29.50
2022-09-05T15:16:28.532Z,29.60
2022-09-05T15:21:39.664Z,29.70
2022-09-05T15:27:17.520Z,29.70
2022-09-05T15:32:29.484Z,29.70
2022-09-05T15:37:39.253Z,29.70
2022-09-05T15:42:53.365Z,29.70
2022-09-05T15:48:19.143Z,29.70
2022-09-05T15:53:35.926Z,29.70
2022-09-05T15:58:55.222Z,29.70
2022-09-05T16:08:31.388Z,29.70
2022-09-05T16:10:59.013Z,29.80
2022-09-05T16:19:00.197Z,29.90
2022-09-05T16:23:23.941Z,29.90
2022-09-05T16:26:14.159Z,29.90
2022-09-05T16:31:51.461Z,29.80
2022-09-05T16:37:08.022Z,29.80
2022-09-05T16:42:47.195Z,29.80
2022-09-05T16:48:07.065Z,29.80
2022-09-05T16:53:28.297Z,29.80
2022-09-05T16:59:03.149Z,29.80
2022-09-05T17:04:21.654Z,29.70
2022-09-05T17:09:40.504Z,29.70
2022-09-05T17:14:54.776Z,29.80
2022-09-05T17:20:07.303Z,29.70
2022-09-05T17:29:24.239Z,29.70
2022-09-05T17:36:53.560Z,29.60
2022-09-05T17:42:10.316Z,29.50
2022-09-05T17:47:24.318Z,29.50
2022-09-05T17:53:25.819Z,29.50
2022-09-05T17:58:41.225Z,29.50
2022-09-05T18:04:15.837Z,29.40
2022-09-05T18:10:01.504Z,29.30
2022-09-05T18:15:27.110Z,29.20
2022-09-05T18:20:45.179Z,29.10
2022-09-05T18:25:56.920Z,29.10
2022-09-05T18:31:41.618Z,29.10
2022-09-05T18:36:52.879Z,29.10
2022-09-05T18:42:26.553Z,29.10
2022-09-05T18:47:59.132Z,29.00
2022-09-05T18:53:12.975Z,28.90
2022-09-05T18:58:37.072Z,28.80
2022-09-05T19:03:45.038Z,28.80
2022-09-05T19:09:26.861Z,28.70
2022-09-05T19:14:56.024Z,28.60
2022-09-05T19:20:33.108Z,28.50
2022-09-05T19:25:41.298Z,28.50
2022-09-05T19:36:58.906Z,28.50
2022-09-05T19:37:23.826Z,28.60
2022-09-05T19:47:30.004Z,28.60
2022-09-05T19:53:10.297Z,28.40
2022-09-05T19:58:24.047Z,28.40
2022-09-05T20:03:38.197Z,28.40
2022-09-05T20:08:48.463Z,28.40
2022-09-05T20:13:55.116Z,28.40
2022-09-05T20:19:01.634Z,28.30
2022-09-05T20:24:08.265Z,28.30
2022-09-05T20:29:16.472Z,28.20
2022-09-05T20:35:17.495Z,28.20
2022-09-05T20:43:18.556Z,28.20
2022-09-05T20:45:46.058Z,28.20
2022-09-05T20:54:21.533Z,28.20
2022-09-05T20:56:37.603Z,28.00
2022-09-05T21:01:44.140Z,28.10
2022-09-05T21:06:50.901Z,28.10
2022-09-05T21:12:00.116Z,28.10
2022-09-05T21:17:15.504Z,28.00
2022-09-05T21:22:43.676Z,27.90
2022-09-05T21:28:23.458Z,27.90
2022-09-05T21:33:45.118Z,27.90
2022-09-05T21:38:51.507Z,27.80
2022-09-05T21:47:34.035Z,27.80
2022-09-05T21:49:24.554Z,27.80
2022-09-05T21:59:14.485Z,27.70
2022-09-05T22:00:04.008Z,27.70
2022-09-05T22:05:26.933Z,27.60
2022-09-05T22:10:43.457Z,27.50
2022-09-05T22:16:06.308Z,27.50
2022-09-05T22:21:31.758Z,27.50
2022-09-05T22:27:11.355Z,27.40
2022-09-05T22:32:14.717Z,27.40
2022-09-05T22:37:20.613Z,27.40
2022-09-05T22:42:26.303Z,27.40
2022-09-05T22:47:32.047Z,27.30
2022-09-05T22:52:37.739Z,27.30
2022-09-05T22:57:43.759Z,27.30
2022-09-05T23:02:52.386Z,27.20
2022-09-05T23:08:02.415Z,27.30
2022-09-05T23:13:10.496Z,27.40
2022-09-05T23:18:16.010Z,27.30
2022-09-05T23:23:21.246Z,27.40
2022-09-05T23:28:27.018Z,27.50
2022-09-05T23:33:33.527Z,27.60
2022-09-05T23:38:38.960Z,27.60
2022-09-05T23:43:44.464Z,27.70
2022-09-05T23:48:50.000Z,27.90
2022-09-05T23:53:55.108Z,28.00
2022-09-05T23:59:00.810Z,28.20
